Rachel, Nevada
Current Conditions -  °F | °C
As of 2:58 AM on Monday 29 Dec 2014 (Local Time) from KINS Reporting Station
Clear Clear  
Wind Chill: 25°   Ceiling: Unl
Heat Index: 25°   Visibility: 10mi
Dew Point:   Wind: 2mph
Humidity: 52%   Direction: 210°SSW
Pressure: 30.1"   Gusts: NA
Location:  37.3772°N, 115.475°W
Report Text: KINS 291058Z AUTO 21002KT 10SM CLR M04/M13 A3010 RMK AO2 SLP196 T10411127
Loading
Personal Weather Stations






























Interactive Weather Map New forecast layout! Learn more

10-Day Weather Forecast

Advertisements
Track Severe Weather on mobile